createdAt,value
2022-09-01T00:01:22.123Z,14.83
2022-09-01T00:04:27.153Z,14.79
2022-09-01T00:07:32.191Z,14.77
2022-09-01T00:10:33.809Z,14.78
2022-09-01T00:13:38.246Z,14.77
2022-09-01T00:16:39.951Z,14.74
2022-09-01T00:19:41.618Z,14.66
2022-09-01T00:22:43.336Z,14.64
2022-09-01T00:25:45.209Z,14.59
2022-09-01T00:28:48.197Z,14.57
2022-09-01T00:31:52.749Z,14.60
2022-09-01T00:34:54.467Z,14.59
2022-09-01T00:37:56.518Z,14.56
2022-09-01T00:41:00.900Z,14.52
2022-09-01T00:44:05.630Z,14.50
2022-09-01T00:47:07.303Z,14.53
2022-09-01T00:50:09.697Z,14.54
2022-09-01T00:53:11.500Z,14.56
2022-09-01T00:56:13.728Z,14.56
2022-09-01T00:59:17.960Z,14.56
2022-09-01T01:02:19.581Z,14.48
2022-09-01T01:05:22.011Z,14.43
2022-09-01T01:08:34.202Z,14.38
2022-09-01T01:11:36.229Z,14.31
2022-09-01T01:14:40.174Z,14.25
2022-09-01T01:17:41.997Z,14.20
2022-09-01T01:21:02.443Z,14.15
2022-09-01T01:24:09.383Z,14.10
2022-09-01T01:27:12.757Z,14.06
2022-09-01T01:30:14.833Z,14.01
2022-09-01T01:33:17.444Z,13.98
2022-09-01T01:36:31.451Z,13.95
2022-09-01T01:39:33.747Z,13.90
2022-09-01T01:42:37.942Z,13.89
2022-09-01T01:45:39.776Z,13.87
2022-09-01T01:48:43.609Z,13.82
2022-09-01T01:51:45.485Z,13.77
2022-09-01T01:54:53.924Z,13.66
2022-09-01T01:57:57.568Z,13.60
2022-09-01T02:00:59.617Z,13.57
2022-09-01T02:04:04.139Z,13.54
2022-09-01T02:07:10.720Z,13.48
2022-09-01T02:10:12.625Z,13.46
2022-09-01T02:13:17.087Z,13.38
2022-09-01T02:16:22.700Z,13.39
2022-09-01T02:19:24.519Z,13.39
2022-09-01T02:22:26.172Z,13.38
2022-09-01T02:25:28.689Z,13.35
2022-09-01T02:28:33.028Z,13.40
2022-09-01T02:31:36.034Z,13.41
2022-09-01T02:34:40.034Z,13.38
2022-09-01T02:37:43.445Z,13.38
2022-09-01T02:40:47.213Z,13.41
2022-09-01T02:43:50.787Z,13.32
2022-09-01T02:46:52.378Z,13.26
2022-09-01T02:49:54.837Z,13.20
2022-09-01T02:53:01.938Z,13.21
2022-09-01T02:56:09.669Z,13.15
2022-09-01T02:59:13.253Z,13.07
2022-09-01T03:02:14.999Z,13.07
2022-09-01T03:05:16.517Z,13.11
2022-09-01T03:08:19.074Z,13.12
2022-09-01T03:11:21.145Z,13.05
2022-09-01T03:14:24.874Z,13.03
2022-09-01T03:17:26.796Z,13.00
2022-09-01T03:20:31.139Z,12.98
2022-09-01T03:23:34.074Z,12.98
2022-09-01T03:26:36.334Z,12.99
2022-09-01T03:29:39.464Z,12.97
2022-09-01T03:32:41.054Z,12.92
2022-09-01T03:35:43.538Z,12.82
2022-09-01T03:38:48.738Z,12.76
2022-09-01T03:41:50.285Z,12.69
2022-09-01T03:44:53.383Z,12.65
2022-09-01T03:47:55.409Z,12.58
2022-09-01T03:51:03.012Z,12.54
2022-09-01T03:54:05.116Z,12.48
2022-09-01T03:57:10.103Z,12.41
2022-09-01T04:00:20.506Z,12.36
2022-09-01T04:03:29.125Z,12.30
2022-09-01T04:06:32.866Z,12.22
2022-09-01T04:09:35.330Z,12.18
2022-09-01T04:12:37.534Z,12.13
2022-09-01T04:15:40.515Z,12.07
2022-09-01T04:18:42.293Z,12.03
2022-09-01T04:21:45.062Z,12.02
2022-09-01T04:24:46.865Z,11.97
2022-09-01T04:27:48.882Z,11.94
2022-09-01T04:30:55.886Z,11.93
2022-09-01T04:33:58.397Z,11.88
2022-09-01T04:37:00.153Z,11.85
2022-09-01T04:40:01.911Z,11.88
2022-09-01T04:43:03.661Z,11.90
2022-09-01T04:46:09.150Z,11.87
2022-09-01T04:49:16.321Z,11.83
2022-09-01T04:52:18.335Z,11.84
2022-09-01T04:55:20.119Z,11.82
2022-09-01T04:58:22.221Z,11.84
2022-09-01T05:01:26.541Z,11.93
2022-09-01T05:04:29.356Z,11.89
2022-09-01T05:07:35.114Z,11.88
2022-09-01T05:10:41.858Z,11.90
2022-09-01T05:13:45.214Z,11.96
2022-09-01T05:16:56.528Z,12.01
2022-09-01T05:19:58.537Z,12.08
2022-09-01T05:23:02.566Z,12.11
2022-09-01T05:26:06.393Z,12.13
2022-09-01T05:29:13.507Z,12.22
2022-09-01T05:32:16.529Z,12.27
2022-09-01T05:35:19.009Z,12.28
2022-09-01T05:38:20.755Z,12.32
2022-09-01T05:41:27.340Z,12.37
2022-09-01T05:44:29.480Z,12.47
2022-09-01T05:47:35.734Z,12.57
2022-09-01T05:50:40.755Z,12.65
2022-09-01T05:53:43.965Z,12.72
2022-09-01T05:56:46.076Z,12.77
2022-09-01T05:59:54.099Z,12.80
2022-09-01T06:02:58.774Z,12.85
2022-09-01T06:06:03.188Z,12.89
2022-09-01T06:09:10.723Z,12.96
2022-09-01T06:12:18.699Z,13.03
2022-09-01T06:15:21.201Z,13.10
2022-09-01T06:18:24.139Z,13.16
2022-09-01T06:21:26.627Z,13.22
2022-09-01T06:24:29.049Z,13.27
2022-09-01T06:27:30.723Z,13.31
2022-09-01T06:30:33.231Z,13.40
2022-09-01T06:33:36.239Z,13.45
2022-09-01T06:36:40.718Z,13.51
2022-09-01T06:39:51.805Z,13.58
2022-09-01T06:42:53.996Z,13.63
2022-09-01T06:45:55.582Z,13.71
2022-09-01T06:49:01.052Z,13.78
2022-09-01T06:52:04.109Z,13.83
2022-09-01T06:55:07.891Z,13.88
2022-09-01T06:58:14.143Z,13.92
2022-09-01T07:01:18.096Z,14.01
2022-09-01T07:04:25.345Z,14.03
2022-09-01T07:14:19.260Z,14.30
2022-09-01T07:17:23.173Z,14.37
2022-09-01T07:20:29.334Z,14.43
2022-09-01T07:23:46.292Z,14.47
2022-09-01T07:26:53.981Z,14.54
2022-09-01T07:29:57.170Z,14.61
2022-09-01T07:33:41.662Z,14.67
2022-09-01T07:36:26.993Z,14.75
2022-09-01T07:43:09.531Z,14.93
2022-09-01T07:49:52.607Z,15.13
2022-09-01T07:52:56.973Z,15.14
2022-09-01T07:55:59.484Z,15.26
2022-09-01T07:59:02.374Z,15.30
2022-09-01T08:02:06.426Z,15.36
2022-09-01T08:05:10.328Z,15.49
2022-09-01T08:08:18.970Z,15.56
2022-09-01T08:11:40.102Z,15.66
2022-09-01T08:14:46.728Z,15.69
2022-09-01T08:17:52.135Z,15.80
2022-09-01T08:20:53.957Z,15.83
2022-09-01T08:23:57.654Z,15.87
2022-09-01T08:26:59.341Z,16.02
2022-09-01T08:30:01.348Z,16.06
2022-09-01T08:33:10.793Z,16.08
2022-09-01T08:36:13.431Z,16.18
2022-09-01T08:39:17.365Z,16.26
2022-09-01T08:42:24.138Z,16.29
2022-09-01T08:45:29.856Z,16.26
2022-09-01T08:49:23.704Z,16.37
2022-09-01T08:52:00.737Z,16.48
2022-09-01T08:55:09.173Z,16.59
2022-09-01T08:58:12.268Z,16.55
2022-09-01T09:01:20.421Z,16.59
2022-09-01T09:04:29.524Z,16.72
2022-09-01T09:07:40.113Z,16.87
2022-09-01T09:10:50.435Z,16.97
2022-09-01T09:14:00.339Z,17.12
2022-09-01T09:17:02.675Z,17.17
2022-09-01T09:20:05.447Z,17.29
2022-09-01T09:23:12.187Z,17.56
2022-09-01T09:26:21.906Z,17.61
2022-09-01T09:29:24.462Z,17.66
2022-09-01T09:33:15.064Z,17.76
2022-09-01T09:36:16.555Z,17.79
2022-09-01T09:39:18.455Z,17.90
2022-09-01T09:42:21.469Z,18.27
2022-09-01T09:45:24.878Z,18.47
2022-09-01T09:48:28.894Z,18.47
2022-09-01T09:51:30.613Z,18.44
2022-09-01T09:54:33.528Z,18.63
2022-09-01T09:57:43.286Z,18.80
2022-09-01T10:01:00.141Z,18.80
2022-09-01T10:04:03.854Z,18.96
2022-09-01T10:07:23.715Z,19.13
2022-09-01T10:10:27.594Z,19.32
2022-09-01T10:13:32.992Z,19.24
2022-09-01T10:16:37.819Z,19.16
2022-09-01T10:19:42.056Z,19.24
2022-09-01T10:22:44.789Z,19.32
2022-09-01T10:25:50.412Z,19.36
2022-09-01T10:28:56.544Z,19.27
2022-09-01T10:32:28.146Z,19.35
2022-09-01T10:35:24.151Z,19.39
2022-09-01T10:38:27.057Z,19.50
2022-09-01T10:41:45.878Z,19.60
2022-09-01T10:44:58.268Z,19.63
2022-09-01T10:48:30.323Z,20.06
2022-09-01T10:51:55.225Z,19.67
2022-09-01T10:55:08.184Z,19.40
2022-09-01T11:05:32.658Z,19.49
2022-09-01T11:08:42.573Z,19.79
2022-09-01T11:12:00.108Z,20.01
2022-09-01T11:15:02.612Z,19.82
2022-09-01T11:18:10.531Z,19.92
2022-09-01T11:21:16.608Z,20.17
2022-09-01T11:24:39.443Z,20.24
2022-09-01T11:28:10.304Z,20.19
2022-09-01T11:31:20.984Z,20.17
2022-09-01T11:34:24.830Z,20.25
2022-09-01T11:37:27.820Z,20.26
2022-09-01T11:40:32.658Z,20.28
2022-09-01T11:43:36.007Z,20.30
2022-09-01T11:46:39.103Z,20.19
2022-09-01T11:49:49.133Z,20.17
2022-09-01T11:52:54.907Z,20.21
2022-09-01T11:56:13.083Z,20.20
2022-09-01T11:59:16.889Z,20.31
2022-09-01T12:02:20.271Z,20.23
2022-09-01T12:05:29.073Z,20.24
2022-09-01T12:08:34.308Z,20.46
2022-09-01T12:11:36.090Z,20.68
2022-09-01T12:15:02.061Z,20.76
2022-09-01T12:18:10.831Z,20.93
2022-09-01T12:21:21.296Z,21.26
2022-09-01T12:24:24.628Z,21.39
2022-09-01T12:27:26.295Z,21.68
2022-09-01T12:30:31.220Z,21.52
2022-09-01T12:33:33.352Z,21.30
2022-09-01T12:36:37.199Z,21.38
2022-09-01T12:39:39.904Z,21.39
2022-09-01T12:42:49.262Z,21.48
2022-09-01T12:45:53.249Z,21.37
2022-09-01T12:48:54.976Z,21.29
2022-09-01T12:52:10.970Z,21.47
2022-09-01T12:58:40.477Z,21.92
2022-09-01T13:01:48.441Z,21.99
2022-09-01T13:04:51.190Z,22.01
2022-09-01T13:07:55.202Z,21.96
2022-09-01T13:10:58.161Z,21.56
2022-09-01T13:14:00.066Z,21.31
2022-09-01T13:17:02.305Z,21.04
2022-09-01T13:20:04.187Z,21.05
2022-09-01T13:23:07.391Z,21.11
2022-09-01T13:26:10.307Z,21.28
2022-09-01T13:29:12.259Z,21.41
2022-09-01T13:32:19.618Z,21.39
2022-09-01T13:35:23.062Z,21.51
2022-09-01T13:38:26.695Z,21.60
2022-09-01T13:41:29.288Z,21.75
2022-09-01T13:44:31.195Z,21.59
2022-09-01T13:47:32.979Z,21.34
2022-09-01T13:51:14.637Z,21.08
2022-09-01T13:53:57.673Z,20.86
2022-09-01T13:56:59.231Z,20.78
2022-09-01T14:00:01.092Z,20.80
2022-09-01T14:03:04.837Z,20.73
2022-09-01T14:06:06.810Z,20.69
2022-09-01T14:09:11.147Z,20.94
2022-09-01T14:12:15.159Z,21.36
2022-09-01T14:15:20.597Z,21.60
2022-09-01T14:25:09.451Z,22.01
2022-09-01T14:28:13.769Z,21.51
2022-09-01T14:31:18.393Z,21.18
2022-09-01T14:34:20.006Z,20.95
2022-09-01T14:37:21.740Z,20.80
2022-09-01T14:40:33.936Z,20.70
2022-09-01T14:43:35.770Z,20.62
2022-09-01T14:46:39.299Z,20.69
2022-09-01T14:49:41.948Z,20.86
2022-09-01T14:52:45.132Z,20.74
2022-09-01T14:55:50.495Z,20.64
2022-09-01T14:59:00.796Z,20.56
2022-09-01T15:02:02.674Z,20.55
2022-09-01T15:05:04.689Z,20.48
2022-09-01T15:08:07.224Z,20.62
2022-09-01T15:11:11.268Z,21.06
2022-09-01T15:14:13.351Z,21.33
2022-09-01T15:17:14.948Z,21.19
2022-09-01T15:20:35.250Z,20.98
2022-09-01T15:23:36.925Z,20.87
2022-09-01T15:26:41.214Z,20.78
2022-09-01T15:29:48.135Z,20.67
2022-09-01T15:32:51.287Z,20.57
2022-09-01T15:35:53.838Z,20.50
2022-09-01T15:38:56.686Z,20.48
2022-09-01T15:41:59.897Z,20.46
2022-09-01T15:45:02.152Z,20.45
2022-09-01T15:48:03.727Z,20.39
2022-09-01T15:51:25.696Z,20.33
2022-09-01T15:54:30.574Z,20.30
2022-09-01T15:57:37.390Z,20.31
2022-09-01T16:00:40.043Z,20.46
2022-09-01T16:03:46.651Z,20.60
2022-09-01T16:06:49.506Z,20.71
2022-09-01T16:09:57.180Z,20.74
2022-09-01T16:13:01.797Z,20.70
2022-09-01T16:16:08.884Z,20.69
2022-09-01T16:19:21.241Z,20.48
2022-09-01T16:22:25.853Z,20.31
2022-09-01T16:25:29.844Z,20.23
2022-09-01T16:28:35.630Z,20.11
2022-09-01T16:31:37.281Z,20.06
2022-09-01T16:34:42.622Z,20.05
2022-09-01T16:37:48.477Z,20.03
2022-09-01T16:40:56.423Z,19.95
2022-09-01T16:44:05.476Z,19.85
2022-09-01T16:47:16.283Z,19.76
2022-09-01T16:50:23.308Z,19.73
2022-09-01T16:53:45.897Z,19.71
2022-09-01T16:56:53.168Z,19.67
2022-09-01T16:59:59.176Z,19.68
2022-09-01T17:03:08.101Z,19.64
2022-09-01T17:06:13.865Z,19.57
2022-09-01T17:09:17.954Z,19.55
2022-09-01T17:12:23.457Z,19.50
2022-09-01T17:15:41.198Z,19.44
2022-09-01T17:18:44.594Z,19.44
2022-09-01T17:21:52.915Z,19.46
2022-09-01T17:24:56.969Z,19.44
2022-09-01T17:28:01.067Z,19.35
2022-09-01T17:31:13.462Z,19.31
2022-09-01T17:34:20.529Z,19.21
2022-09-01T17:37:26.471Z,19.12
2022-09-01T17:40:44.666Z,19.02
2022-09-01T17:43:51.085Z,18.96
2022-09-01T17:47:00.020Z,18.92
2022-09-01T17:50:07.687Z,18.86
2022-09-01T17:53:13.262Z,18.80
2022-09-01T17:56:25.115Z,18.77
2022-09-01T17:59:30.251Z,18.73
2022-09-01T18:02:46.877Z,18.66
2022-09-01T18:05:53.856Z,18.58
2022-09-01T18:08:58.285Z,18.45
2022-09-01T18:12:01.266Z,18.41
2022-09-01T18:15:05.258Z,18.30
2022-09-01T18:18:10.358Z,18.22
2022-09-01T18:21:14.944Z,18.16
2022-09-01T18:24:18.384Z,18.05
2022-09-01T18:27:20.837Z,18.00
2022-09-01T18:30:51.594Z,17.88
2022-09-01T18:33:55.118Z,17.79
2022-09-01T18:37:03.008Z,17.69
2022-09-01T18:40:11.102Z,17.60
2022-09-01T18:43:17.585Z,17.54
2022-09-01T18:46:24.053Z,17.55
2022-09-01T18:49:30.302Z,17.52
2022-09-01T18:52:48.759Z,17.43
2022-09-01T18:55:54.821Z,17.35
2022-09-01T18:59:04.610Z,17.33
2022-09-01T19:02:12.345Z,17.26
2022-09-01T19:05:19.830Z,17.15
2022-09-01T19:08:27.656Z,17.07
2022-09-01T19:11:40.202Z,17.00
2022-09-01T19:14:51.836Z,16.95
2022-09-01T19:18:04.216Z,16.88
2022-09-01T19:21:14.614Z,16.85
2022-09-01T19:24:21.162Z,16.86
2022-09-01T19:27:24.686Z,16.91
2022-09-01T19:30:26.351Z,16.90
2022-09-01T19:33:30.664Z,16.88
2022-09-01T19:36:40.081Z,16.85
2022-09-01T19:39:44.964Z,16.85
2022-09-01T19:42:51.298Z,16.88
2022-09-01T19:45:59.310Z,16.91
2022-09-01T19:49:04.752Z,16.92
2022-09-01T19:52:10.906Z,16.87
2022-09-01T19:55:31.993Z,16.87
2022-09-01T19:58:38.350Z,16.83
2022-09-01T20:01:43.605Z,16.80
2022-09-01T20:04:48.977Z,16.78
2022-09-01T20:07:59.584Z,16.75
2022-09-01T20:11:06.356Z,16.73
2022-09-01T20:14:17.606Z,16.71
2022-09-01T20:17:22.323Z,16.71
2022-09-01T20:20:25.845Z,16.70
2022-09-01T20:23:28.591Z,16.64
2022-09-01T20:26:34.655Z,16.59
2022-09-01T20:29:41.131Z,16.55
2022-09-01T20:32:46.187Z,16.51
2022-09-01T20:35:50.617Z,16.49
2022-09-01T20:39:13.309Z,16.41
2022-09-01T20:42:20.098Z,16.38
2022-09-01T20:45:22.636Z,16.35
2022-09-01T20:48:25.388Z,16.29
2022-09-01T20:51:32.835Z,16.28
2022-09-01T20:54:39.385Z,16.27
2022-09-01T20:57:46.351Z,16.24
2022-09-01T21:00:50.670Z,16.22
2022-09-01T21:04:06.036Z,16.24
2022-09-01T21:07:09.928Z,16.24
2022-09-01T21:10:17.741Z,16.24
2022-09-01T21:13:26.436Z,16.23
2022-09-01T21:16:33.504Z,16.16
2022-09-01T21:19:39.987Z,16.06
2022-09-01T21:22:41.825Z,16.00
2022-09-01T21:25:44.475Z,15.93
2022-09-01T21:28:51.668Z,15.88
2022-09-01T21:31:55.931Z,15.81
2022-09-01T21:34:58.283Z,15.83
2022-09-01T21:37:59.872Z,15.79
2022-09-01T21:41:01.917Z,15.73
2022-09-01T21:44:04.839Z,15.72
2022-09-01T21:47:06.705Z,15.74
2022-09-01T21:50:08.912Z,15.72
2022-09-01T21:53:10.820Z,15.72
2022-09-01T21:56:15.630Z,15.73
2022-09-01T21:59:18.764Z,15.77
2022-09-01T22:02:20.717Z,15.75
2022-09-01T22:05:26.347Z,15.76
2022-09-01T22:08:28.395Z,15.75
2022-09-01T22:11:32.929Z,15.69
2022-09-01T22:14:37.297Z,15.67
2022-09-01T22:17:49.001Z,15.68
2022-09-01T22:21:01.039Z,15.63
2022-09-01T22:24:03.049Z,15.60
2022-09-01T22:27:04.608Z,15.55
2022-09-01T22:30:09.117Z,15.52
2022-09-01T22:33:13.341Z,15.49
2022-09-01T22:36:19.215Z,15.53
2022-09-01T22:39:22.339Z,15.53
2022-09-01T22:42:26.805Z,15.52
2022-09-01T22:45:30.253Z,15.52
2022-09-01T22:48:31.772Z,15.44
2022-09-01T22:51:33.876Z,15.40
2022-09-01T22:54:35.676Z,15.38
2022-09-01T22:57:37.856Z,15.36
2022-09-01T23:00:44.036Z,15.34
2022-09-01T23:03:45.784Z,15.28
2022-09-01T23:06:49.824Z,15.27
2022-09-01T23:09:51.583Z,15.23
2022-09-01T23:12:54.107Z,15.18
2022-09-01T23:15:58.493Z,15.13
2022-09-01T23:19:00.399Z,15.11
2022-09-01T23:22:03.263Z,15.13
2022-09-01T23:25:06.962Z,15.10
2022-09-01T23:28:10.046Z,15.11
2022-09-01T23:31:14.676Z,15.10
2022-09-01T23:34:16.177Z,15.10
2022-09-01T23:37:17.605Z,15.09
2022-09-01T23:40:19.444Z,15.06
2022-09-01T23:43:23.396Z,15.05
2022-09-01T23:46:27.409Z,15.06
2022-09-01T23:49:29.207Z,15.03
2022-09-01T23:52:31.179Z,14.99
2022-09-01T23:55:32.954Z,14.95
2022-09-01T23:58:34.537Z,14.90
